M I D A S
Marine Information and Data Acquisition System
Tripno 861 of the Zeeleeuw from 2005-03-11 07:52:16 to 2005-03-11 13:55:14
Back to CruiseResearch ActivitiesStationsMapUnderway DataData graphs

EquipmentUnitsComment
TimeDGPSUTC
LatitudeDGPSDM.mWGS84
LongitudeDGPSDM.mWGS84
HeadingGyrodeg 
SOGDGPSknotsSpeed over ground
COGDGPSdegCourse over ground
DepthEcho soundermeters200 kHz
Missing or incorrect values are displayed as -999
Navigation data collected by the RV Zeeleeuw from 2005-03-11 07:53:12 to 2005-03-11 14:07:33
                                                                                    Next 1000 lines
Time Latitude Longitude Heading SOG COG Depth
2005-03-11 07:53:20 51°13.592 2°56.104 131.3 0.7 127 -999
2005-03-11 07:53:27 51°13.591 2°56.106 131.3 0.8 128 -999
2005-03-11 07:53:32 51°13.589 2°56.109 131.3 1.5 126 -999
2005-03-11 07:53:36 51°13.588 2°56.113 131.4 1.8 127 -999
2005-03-11 07:53:42 51°13.586 2°56.117 131.8 2.3 127 5.3
2005-03-11 07:53:46 51°13.583 2°56.122 132.4 2.3 127 6.1
2005-03-11 07:53:51 51°13.58 2°56.128 132.7 3.3 128 6.3
2005-03-11 07:53:56 51°13.577 2°56.135 132.8 3.5 128 6.5
2005-03-11 07:54:01 51°13.574 2°56.141 132.5 3.8 128 6.1
2005-03-11 07:54:06 51°13.57 2°56.148 132 3.8 128 5.6
2005-03-11 07:54:11 51°13.567 2°56.153 132 3.7 130 6
2005-03-11 07:54:16 51°13.564 2°56.159 132.5 3.6 131 7.3
2005-03-11 07:54:20 51°13.561 2°56.164 133.7 3.5 133 -999
2005-03-11 07:54:26 51°13.557 2°56.17 135 3.5 136 8.5
2005-03-11 07:54:31 51°13.553 2°56.175 137.4 3.7 137 8.4
2005-03-11 07:54:37 51°13.548 2°56.181 141.9 3.8 145 8.4
2005-03-11 07:54:41 51°13.544 2°56.184 146.7 3.8 145 8.5
2005-03-11 07:54:46 51°13.54 2°56.187 152.6 3.8 145 8.5
2005-03-11 07:54:51 51°13.536 2°56.19 156.2 3.4 155 8.5
2005-03-11 07:54:56 51°13.533 2°56.191 158.6 3.4 155 8.5
2005-03-11 07:55:02 51°13.531 2°56.192 162.5 3.4 155 8.5
2005-03-11 07:55:06 51°13.529 2°56.193 167.5 3.4 155 8.4
2005-03-11 07:55:11 51°13.528 2°56.193 172.2 0.8 171 8.4
2005-03-11 07:55:16 51°13.528 2°56.193 176.6 0.6 167 8.4
2005-03-11 07:55:21 51°13.529 2°56.193 180.8 0.3 12 8.4
2005-03-11 07:55:26 51°13.53 2°56.193 184.7 0.5 12 8.4
2005-03-11 07:55:30 51°13.531 2°56.194 188 1.1 7 8.4
2005-03-11 07:55:36 51°13.534 2°56.195 189.5 1.1 7 8.6
2005-03-11 07:55:42 51°13.536 2°56.195 190.8 1.5 10 -999
2005-03-11 07:55:46 51°13.538 2°56.195 191.2 1.4 7 -999
2005-03-11 07:55:52 51°13.539 2°56.195 191 1 4 -999
2005-03-11 07:55:56 51°13.539 2°56.195 190.9 0.5 4 5.1
2005-03-11 07:56:01 51°13.539 2°56.195 192.3 0.1 297 5.3
2005-03-11 07:56:06 51°13.538 2°56.194 195 0.5 211 5.1
2005-03-11 07:56:12 51°13.536 2°56.193 198.8 1.1 203 -999
2005-03-11 07:56:16 51°13.534 2°56.192 203.6 1.3 202 5.3
2005-03-11 07:56:22 51°13.533 2°56.191 207.7 1.3 202 5.3
2005-03-11 07:56:26 51°13.533 2°56.191 209.5 0.5 182 -999
2005-03-11 07:56:32 51°13.534 2°56.192 212.3 0.2 13 -999
2005-03-11 07:56:37 51°13.535 2°56.193 214.6 0.4 57 8.6
2005-03-11 07:56:41 51°13.536 2°56.195 216.6 1 32 8.5
2005-03-11 07:56:46 51°13.538 2°56.197 217.7 1 32 8.5
2005-03-11 07:56:52 51°13.54 2°56.199 218.5 1.6 39 -999
2005-03-11 07:56:57 51°13.542 2°56.201 219.1 1.7 37 -999
2005-03-11 07:57:02 51°13.543 2°56.202 218.4 1.2 27 -999
2005-03-11 07:57:06 51°13.543 2°56.202 218.3 0.1 106 -999
2005-03-11 07:57:12 51°13.542 2°56.2 221.3 0.1 106 -999
2005-03-11 07:57:17 51°13.54 2°56.197 225.8 1.7 224 -999
2005-03-11 07:57:22 51°13.539 2°56.193 232.4 1.8 230 -999
2005-03-11 07:57:26 51°13.538 2°56.191 238.8 1.5 237 -999
2005-03-11 07:57:32 51°13.537 2°56.189 241.1 1.1 229 -999
2005-03-11 07:57:36 51°13.536 2°56.189 243.9 1.1 229 5.4
2005-03-11 07:57:42 51°13.536 2°56.189 246 0.1 175 -999
2005-03-11 07:57:46 51°13.537 2°56.19 247.9 0.1 175 -999
2005-03-11 07:57:50 51°13.537 2°56.192 249.4 1 74 8.6
2005-03-11 07:57:56 51°13.538 2°56.196 250.3 1.4 72 -999
2005-03-11 07:58:02 51°13.539 2°56.201 251.5 1.8 69 -999
2005-03-11 07:58:06 51°13.54 2°56.204 252.3 1.8 67 -999
2005-03-11 07:58:12 51°13.54 2°56.206 252.3 1.4 67 -999
2005-03-11 07:58:17 51°13.541 2°56.206 252.5 0.3 43 -999
2005-03-11 07:58:22 51°13.54 2°56.204 255.2 0.3 43 -999
2005-03-11 07:58:26 51°13.54 2°56.201 259.1 1.5 261 4.9
2005-03-11 07:58:32 51°13.54 2°56.196 266.8 1.5 261 -999
2005-03-11 07:58:36 51°13.54 2°56.192 272.4 1.9 272 -999
2005-03-11 07:58:42 51°13.54 2°56.186 277.1 1.9 272 5
2005-03-11 07:58:46 51°13.541 2°56.18 281.5 2.6 278 -999
2005-03-11 07:58:52 51°13.543 2°56.172 286.8 3.2 291 8.6
2005-03-11 07:58:56 51°13.545 2°56.166 296.1 3.3 292 8.5
2005-03-11 07:59:01 51°13.548 2°56.16 302.5 3.7 302 8.5
2005-03-11 07:59:06 51°13.552 2°56.151 307.8 3.7 302 8.5
2005-03-11 07:59:10 51°13.554 2°56.146 309.6 4.3 305 8.3
2005-03-11 07:59:16 51°13.559 2°56.135 309.3 4.3 305 8.2
2005-03-11 07:59:21 51°13.563 2°56.126 308.9 4.8 305 8.1
2005-03-11 07:59:26 51°13.567 2°56.117 308.3 4.8 305 8.1
2005-03-11 07:59:31 51°13.572 2°56.106 308.2 5.4 305 8.1
2005-03-11 07:59:36 51°13.576 2°56.097 308.4 5.4 305 8
2005-03-11 07:59:40 51°13.58 2°56.088 308.5 5.6 307 8
2005-03-11 07:59:46 51°13.586 2°56.075 307.8 5.8 305 7.9
2005-03-11 07:59:51 51°13.59 2°56.064 307.3 5.8 305 7.9
2005-03-11 07:59:56 51°13.595 2°56.053 306.9 5.8 305 7.6
2005-03-11 08:00:01 51°13.6 2°56.041 306.9 6.1 304 7.8
2005-03-11 08:00:06 51°13.605 2°56.031 307.1 6.3 304 7.9
2005-03-11 08:00:11 51°13.609 2°56.019 307.6 6.4 304 7.9
2005-03-11 08:00:16 51°13.615 2°56.006 307.7 6.4 304 5.7
2005-03-11 08:00:21 51°13.621 2°55.994 308 6.5 306 8
2005-03-11 08:00:26 51°13.626 2°55.982 308.8 6.5 306 7.9
2005-03-11 08:00:30 51°13.63 2°55.974 308.8 6.6 306 7.9
2005-03-11 08:00:36 51°13.637 2°55.959 307.8 6.7 306 7.8
2005-03-11 08:00:41 51°13.642 2°55.948 307.7 6.7 305 7.8
2005-03-11 08:00:46 51°13.648 2°55.934 307.5 6.7 305 7.7
2005-03-11 08:00:51 51°13.653 2°55.922 306.6 6.7 303 7.7
2005-03-11 08:00:56 51°13.658 2°55.909 305.6 6.8 303 7.6
2005-03-11 08:01:01 51°13.663 2°55.896 304.8 6.8 303 7.5
2005-03-11 08:01:06 51°13.668 2°55.884 304.6 6.8 303 7.5
2005-03-11 08:01:12 51°13.674 2°55.87 304.8 6.9 302 7.3
2005-03-11 08:01:16 51°13.678 2°55.858 305.4 6.9 302 7.4
2005-03-11 08:01:20 51°13.682 2°55.848 306 6.9 302 7.5
2005-03-11 08:01:25 51°13.687 2°55.835 306 6.9 302 7.9
2005-03-11 08:01:31 51°13.694 2°55.819 306 7 302 8.1
2005-03-11 08:01:36 51°13.699 2°55.806 306.2 7 303 8.2
2005-03-11 08:01:42 51°13.705 2°55.792 307.2 7.1 304 8.3
2005-03-11 08:01:46 51°13.711 2°55.78 308.4 7.1 304 8.3
2005-03-11 08:01:50 51°13.715 2°55.772 309.9 7.2 307 8.3
2005-03-11 08:01:56 51°13.723 2°55.755 311.3 7.2 308 8.3
2005-03-11 08:02:02 51°13.73 2°55.742 312.8 7.2 309 8.3
2005-03-11 08:02:07 51°13.738 2°55.729 314.7 7.2 311 9.9
2005-03-11 08:02:12 51°13.744 2°55.719 315.9 7.2 311 -999
2005-03-11 08:02:16 51°13.75 2°55.709 317.2 7.2 314 8.1
2005-03-11 08:02:22 51°13.758 2°55.697 319.5 7.1 316 8.4
2005-03-11 08:02:27 51°13.766 2°55.687 322 7.1 318 -999
2005-03-11 08:02:32 51°13.774 2°55.678 324.2 7.1 323 -999
2005-03-11 08:02:37 51°13.782 2°55.67 327.3 7.1 323 -999
2005-03-11 08:02:42 51°13.791 2°55.662 330 7 328 8.3
2005-03-11 08:02:47 51°13.8 2°55.653 332.4 7.1 331 -999
2005-03-11 08:02:52 51°13.808 2°55.647 334.3 7.1 331 -999
2005-03-11 08:02:56 51°13.816 2°55.64 335.6 7.1 331 -999
2005-03-11 08:03:02 51°13.825 2°55.632 336.6 7.2 333 -999
2005-03-11 08:03:06 51°13.834 2°55.626 337.6 7.2 333 -999
2005-03-11 08:03:12 51°13.844 2°55.619 338.2 7.2 335 -999
2005-03-11 08:03:17 51°13.853 2°55.612 338.9 7.2 335 -999
2005-03-11 08:03:21 51°13.861 2°55.606 339.7 7.3 336 8.6
2005-03-11 08:03:26 51°13.87 2°55.599 340 7.3 336 8.1
2005-03-11 08:03:32 51°13.881 2°55.591 340.2 7.3 336 -999
2005-03-11 08:03:36 51°13.889 2°55.586 340.5 7.3 336 -999
2005-03-11 08:03:41 51°13.898 2°55.58 341.1 7.3 337 8
2005-03-11 08:03:46 51°13.907 2°55.574 341.2 7.3 337 8
2005-03-11 08:03:51 51°13.916 2°55.568 341.1 7.4 338 8
2005-03-11 08:03:56 51°13.927 2°55.561 340.7 7.4 338 8.1
2005-03-11 08:04:01 51°13.935 2°55.555 340.4 7.4 337 8
2005-03-11 08:04:06 51°13.945 2°55.548 340.4 7.4 337 8
2005-03-11 08:04:10 51°13.953 2°55.542 340.2 7.5 337 8
2005-03-11 08:04:16 51°13.965 2°55.534 339.6 7.4 336 8
2005-03-11 08:04:20 51°13.972 2°55.529 339.3 7.4 336 8
2005-03-11 08:04:27 51°13.985 2°55.52 339.3 7.4 337 -999
2005-03-11 08:04:32 51°13.994 2°55.514 339.5 7.4 336 -999
2005-03-11 08:04:36 51°14.002 2°55.508 339.5 7.4 336 -999
2005-03-11 08:04:42 51°14.012 2°55.5 339.2 7.4 336 7.9
2005-03-11 08:04:45 51°14.019 2°55.496 339.1 7.4 336 7.9
2005-03-11 08:04:50 51°14.028 2°55.489 339.1 7.4 336 8.2
2005-03-11 08:04:56 51°14.04 2°55.48 339.1 7.4 336 8.1
2005-03-11 08:05:01 51°14.049 2°55.474 339 7.6 335 7.8
2005-03-11 08:05:07 51°14.061 2°55.465 339.6 7.6 335 7.9
2005-03-11 08:05:11 51°14.069 2°55.459 340 7.6 335 7.9
2005-03-11 08:05:16 51°14.079 2°55.451 339.6 7.9 335 8
2005-03-11 08:05:21 51°14.09 2°55.443 338.9 8.1 335 8
2005-03-11 08:05:26 51°14.099 2°55.436 339 8.2 335 8
2005-03-11 08:05:31 51°14.11 2°55.428 339.3 8.3 336 8
2005-03-11 08:05:36 51°14.121 2°55.419 339.3 8.6 335 8.2
2005-03-11 08:05:41 51°14.132 2°55.412 339.6 8.6 335 8.3
2005-03-11 08:05:46 51°14.142 2°55.404 339.6 8.6 335 8.7
2005-03-11 08:05:51 51°14.154 2°55.394 338.4 8.9 334 8.7
2005-03-11 08:05:57 51°14.168 2°55.382 336.6 8.9 334 -999
2005-03-11 08:06:02 51°14.178 2°55.372 335.3 9.3 331 9.3
2005-03-11 08:06:06 51°14.187 2°55.363 333.6 9.4 329 -999
2005-03-11 08:06:11 51°14.199 2°55.35 332.2 9.6 327 8.8
2005-03-11 08:06:16 51°14.209 2°55.339 329.9 9.6 327 -999
2005-03-11 08:06:22 51°14.222 2°55.323 328.4 9.8 323 8.9
2005-03-11 08:06:26 51°14.231 2°55.312 327.1 9.8 323 9
2005-03-11 08:06:32 51°14.243 2°55.295 325.8 9.8 323 -999
2005-03-11 08:06:36 51°14.252 2°55.281 323.1 10.1 317 -999
2005-03-11 08:06:41 51°14.262 2°55.266 321 10.1 317 8.7
2005-03-11 08:06:46 51°14.271 2°55.251 319.3 10.1 317 9.2
2005-03-11 08:06:51 51°14.281 2°55.234 318.3 10.2 314 9
2005-03-11 08:06:56 51°14.291 2°55.216 317.1 10.2 312 8.6
2005-03-11 08:07:00 51°14.298 2°55.202 316 10.3 310 8.5
2005-03-11 08:07:07 51°14.31 2°55.179 314.7 10.3 310 8.4
2005-03-11 08:07:11 51°14.319 2°55.163 314 10.3 309 8.4
2005-03-11 08:07:16 51°14.327 2°55.147 313.7 10.3 309 8.5
2005-03-11 08:07:21 51°14.336 2°55.128 313.6 10.3 309 8.4
2005-03-11 08:07:26 51°14.344 2°55.112 312.9 10.3 309 8.4
2005-03-11 08:07:31 51°14.354 2°55.091 311.8 10.3 307 8.4
2005-03-11 08:07:36 51°14.362 2°55.072 310.2 10.3 306 8.3
2005-03-11 08:07:41 51°14.37 2°55.053 308 10.4 304 8.3
2005-03-11 08:07:46 51°14.376 2°55.034 305.6 10.4 304 8.3
2005-03-11 08:07:52 51°14.384 2°55.009 304.1 10.7 300 8.6
2005-03-11 08:07:56 51°14.39 2°54.989 301.8 10.7 300 8.6
2005-03-11 08:08:01 51°14.395 2°54.966 298.9 10.9 294 8.6
2005-03-11 08:08:06 51°14.4 2°54.946 295.4 10.9 289 8.6
2005-03-11 08:08:11 51°14.404 2°54.919 293.1 11.1 286 8.6
2005-03-11 08:08:16 51°14.408 2°54.895 290.9 11.3 284 8.6
2005-03-11 08:08:21 51°14.411 2°54.87 288.8 11.5 283 8.6
2005-03-11 08:08:26 51°14.414 2°54.846 287.5 11.7 281 8.6
2005-03-11 08:08:30 51°14.416 2°54.826 287.1 12 281 8.6
2005-03-11 08:08:36 51°14.42 2°54.791 286.5 12.1 281 8.6
2005-03-11 08:08:41 51°14.421 2°54.766 284.8 12.3 278 8.6
2005-03-11 08:08:46 51°14.423 2°54.739 282.3 12.3 278 8.6
2005-03-11 08:08:51 51°14.423 2°54.708 280.1 12.3 278 8.6
2005-03-11 08:08:56 51°14.424 2°54.682 277.7 12.7 272 8.6
2005-03-11 08:09:01 51°14.423 2°54.651 276.2 13 270 8.6
2005-03-11 08:09:06 51°14.423 2°54.625 274.9 13.1 268 8.6
2005-03-11 08:09:10 51°14.421 2°54.601 273.1 13.3 266 8.5
2005-03-11 08:09:16 51°14.421 2°54.566 272.9 13.3 266 8.5
2005-03-11 08:09:21 51°14.419 2°54.533 273 13.3 266 8.5
2005-03-11 08:09:26 51°14.419 2°54.507 273.8 13.4 268 8.6
2005-03-11 08:09:30 51°14.417 2°54.483 272.5 13.5 264 8.4
2005-03-11 08:09:36 51°14.414 2°54.444 270 13.5 264 8.3
2005-03-11 08:09:40 51°14.41 2°54.421 267 13.5 262 8.1
2005-03-11 08:09:46 51°14.405 2°54.389 263.4 13.5 262 7.9
2005-03-11 08:09:52 51°14.398 2°54.355 261 13.6 255 7.9
2005-03-11 08:09:56 51°14.392 2°54.329 258.8 13.6 255 7.9
2005-03-11 08:10:01 51°14.386 2°54.303 256.4 13.6 250 7.9
2005-03-11 08:10:06 51°14.379 2°54.276 254 13.6 250 7.8
2005-03-11 08:10:10 51°14.373 2°54.254 252.2 13.8 247 7.9
2005-03-11 08:10:16 51°14.363 2°54.217 251.5 13.8 247 8
2005-03-11 08:10:21 51°14.355 2°54.19 250.5 13.8 245 7.8
2005-03-11 08:10:26 51°14.348 2°54.164 250 13.8 246 7.8
2005-03-11 08:10:31 51°14.339 2°54.134 249.7 13.9 246 7.7
2005-03-11 08:10:36 51°14.332 2°54.105 250.2 13.9 246 5.7
2005-03-11 08:10:40 51°14.326 2°54.083 251.1 13.9 247 7.6
2005-03-11 08:10:46 51°14.317 2°54.048 251.8 13.9 247 7.7
2005-03-11 08:10:50 51°14.313 2°54.028 253.3 13.9 249 7.7
2005-03-11 08:10:56 51°14.304 2°53.991 254.3 13.9 249 7.7
2005-03-11 08:11:02 51°14.295 2°53.96 254.3 13.9 250 7.7
2005-03-11 08:11:07 51°14.286 2°53.932 252.4 13.9 250 7.7
2005-03-11 08:11:11 51°14.277 2°53.908 249.5 14 243 7.7
2005-03-11 08:11:16 51°14.267 2°53.882 246.2 14.1 240 7.7
2005-03-11 08:11:21 51°14.257 2°53.858 243.1 14 238 7.7
2005-03-11 08:11:26 51°14.246 2°53.833 241.1 14 236 7.6
2005-03-11 08:11:30 51°14.237 2°53.813 239.2 14 235 7.6
2005-03-11 08:11:36 51°14.222 2°53.78 238.4 14 235 7.6
2005-03-11 08:11:40 51°14.213 2°53.76 238 14 234 7.6
2005-03-11 08:11:45 51°14.202 2°53.735 238.1 14 234 7.6
2005-03-11 08:11:50 51°14.192 2°53.711 238.8 14.1 236 7.6
2005-03-11 08:11:56 51°14.179 2°53.68 239.5 14.1 236 7.6
2005-03-11 08:12:00 51°14.171 2°53.659 240.7 14.2 238 7.6
2005-03-11 08:12:06 51°14.159 2°53.627 242.5 14.2 238 7.7
2005-03-11 08:12:12 51°14.147 2°53.595 243.3 14.1 239 7.7
2005-03-11 08:12:16 51°14.138 2°53.571 243.8 14.2 239 7.8
2005-03-11 08:12:21 51°14.127 2°53.544 243.8 14.2 239 7.7
2005-03-11 08:12:27 51°14.116 2°53.515 243.4 14.1 239 5.8
2005-03-11 08:12:30 51°14.108 2°53.496 242.6 14.2 237 7.7
2005-03-11 08:12:36 51°14.095 2°53.465 241.6 14.2 237 7.8
2005-03-11 08:12:42 51°14.083 2°53.436 241 14.2 237 7.8
2005-03-11 08:12:46 51°14.074 2°53.416 240.2 14.2 237 7.8
2005-03-11 08:12:51 51°14.062 2°53.387 239.8 14.2 236 7.8
2005-03-11 08:12:56 51°14.052 2°53.363 239.4 14.2 236 7.9
2005-03-11 08:13:02 51°14.038 2°53.333 239.5 14.3 236 7.9
2005-03-11 08:13:06 51°14.028 2°53.308 239.6 14.3 236 7.9
2005-03-11 08:13:11 51°14.018 2°53.284 240.3 14.3 236 7.9
2005-03-11 08:13:16 51°14.007 2°53.255 241.6 14.3 237 8
2005-03-11 08:13:21 51°13.997 2°53.23 242.4 14.4 239 8
2005-03-11 08:13:25 51°13.988 2°53.206 243.1 14.4 239 8
2005-03-11 08:13:30 51°13.979 2°53.181 244 14.4 240 8.1
2005-03-11 08:13:36 51°13.966 2°53.145 243.9 14.4 239 8.1
2005-03-11 08:13:41 51°13.956 2°53.121 243.8 14.4 239 8.1
2005-03-11 08:13:46 51°13.946 2°53.094 243.3 14.5 238 8.1
2005-03-11 08:13:52 51°13.932 2°53.061 242.8 14.5 238 8.2
2005-03-11 08:13:56 51°13.923 2°53.04 242.3 14.5 238 8.2
2005-03-11 08:14:00 51°13.913 2°53.016 241.2 14.6 236 8.2
2005-03-11 08:14:05 51°13.902 2°52.989 240.7 14.6 236 8.2
2005-03-11 08:14:12 51°13.887 2°52.954 240.4 14.6 237 8.3
2005-03-11 08:14:16 51°13.877 2°52.93 240.8 14.6 236 8.3
2005-03-11 08:14:22 51°13.865 2°52.901 240.9 14.6 236 8.3
2005-03-11 08:14:26 51°13.857 2°52.879 241.7 14.6 236 8.3
2005-03-11 08:14:31 51°13.845 2°52.849 242.2 14.6 237 8.3
2005-03-11 08:14:36 51°13.834 2°52.821 243.2 14.6 238 8.3
2005-03-11 08:14:41 51°13.823 2°52.794 243.1 14.6 238 8.3
2005-03-11 08:14:46 51°13.814 2°52.77 243.2 14.6 238 8.4
2005-03-11 08:14:52 51°13.801 2°52.737 243.4 14.6 238 8.4
2005-03-11 08:14:56 51°13.791 2°52.712 243.2 14.5 238 8.4
2005-03-11 08:15:01 51°13.782 2°52.687 242.7 14.5 238 8.4
2005-03-11 08:15:06 51°13.769 2°52.657 242.7 14.6 238 8.4
2005-03-11 08:15:12 51°13.758 2°52.628 242.3 14.6 238 8.4
2005-03-11 08:15:16 51°13.748 2°52.604 242.4 14.6 238 8.4
2005-03-11 08:15:21 51°13.737 2°52.576 242.3 14.6 238 8.4
2005-03-11 08:15:26 51°13.727 2°52.551 242.7 14.6 238 8.4
2005-03-11 08:15:30 51°13.719 2°52.529 242.9 14.7 238 8.4
2005-03-11 08:15:36 51°13.706 2°52.496 243.3 14.7 238 8.4
2005-03-11 08:15:41 51°13.694 2°52.466 243.8 14.7 239 8.4
2005-03-11 08:15:45 51°13.686 2°52.443 243.8 14.7 239 8.4
2005-03-11 08:15:50 51°13.676 2°52.418 244.2 14.7 239 8.5
2005-03-11 08:15:56 51°13.663 2°52.382 244.2 14.7 239 8.5
2005-03-11 08:16:01 51°13.653 2°52.356 244 14.8 238 8.5
2005-03-11 08:16:06 51°13.643 2°52.329 243.5 14.8 238 8.6
2005-03-11 08:16:12 51°13.63 2°52.295 243.1 14.8 238 8.6
2005-03-11 08:16:16 51°13.62 2°52.271 242.7 14.8 238 8.7
2005-03-11 08:16:20 51°13.611 2°52.248 242.3 14.9 237 8.7
2005-03-11 08:16:26 51°13.597 2°52.215 241.9 14.8 237 8.7
2005-03-11 08:16:31 51°13.586 2°52.188 242.2 14.8 237 8.7
2005-03-11 08:16:36 51°13.575 2°52.161 242.2 14.8 237 8.7
2005-03-11 08:16:41 51°13.565 2°52.136 242.2 14.8 237 8.7
2005-03-11 08:16:47 51°13.552 2°52.103 242.8 14.8 238 8.6
2005-03-11 08:16:51 51°13.542 2°52.078 242.7 14.8 238 8.7
2005-03-11 08:16:56 51°13.531 2°52.05 243.1 14.7 238 8.6
2005-03-11 08:17:01 51°13.521 2°52.022 242.8 14.7 238 8.7
2005-03-11 08:17:06 51°13.511 2°51.997 243.3 14.7 238 8.6
2005-03-11 08:17:10 51°13.502 2°51.975 243.3 14.8 237 8.7
2005-03-11 08:17:16 51°13.488 2°51.939 243.1 14.8 237 8.7
2005-03-11 08:17:20 51°13.48 2°51.917 243.2 14.8 238 8.8
2005-03-11 08:17:25 51°13.469 2°51.889 243.7 14.8 239 8.8
2005-03-11 08:17:31 51°13.457 2°51.858 243.5 14.8 238 8.8
2005-03-11 08:17:36 51°13.445 2°51.828 243.1 14.8 238 8.8
2005-03-11 08:17:41 51°13.434 2°51.801 242.9 14.8 238 8.8
2005-03-11 08:17:46 51°13.423 2°51.772 242.9 14.8 238 8.8
2005-03-11 08:17:51 51°13.413 2°51.745 243.1 14.7 238 8.8
2005-03-11 08:17:56 51°13.403 2°51.72 243.2 14.7 238 8.8
2005-03-11 08:18:01 51°13.391 2°51.689 243.4 14.8 239 8.8
2005-03-11 08:18:07 51°13.379 2°51.659 243.4 14.8 239 8.9
2005-03-11 08:18:10 51°13.373 2°51.642 243.2 14.7 238 8.8
2005-03-11 08:18:16 51°13.359 2°51.606 243.1 14.7 238 8.7
2005-03-11 08:18:21 51°13.348 2°51.579 243 14.8 238 8.9
2005-03-11 08:18:26 51°13.337 2°51.554 243.1 14.8 238 8.7
2005-03-11 08:18:31 51°13.326 2°51.524 242.3 14.8 238 8.7
2005-03-11 08:18:36 51°13.316 2°51.499 242.7 14.8 238 8.7
2005-03-11 08:18:41 51°13.304 2°51.468 242.9 14.8 238 8.8
2005-03-11 08:18:46 51°13.294 2°51.444 243 14.8 238 8.8
2005-03-11 08:18:51 51°13.282 2°51.413 243.3 14.8 238 8.7
2005-03-11 08:18:56 51°13.271 2°51.385 243.4 14.8 238 8.8
2005-03-11 08:19:01 51°13.261 2°51.36 243.1 14.8 238 8.8
2005-03-11 08:19:06 51°13.251 2°51.333 243.1 14.8 238 8.8
2005-03-11 08:19:11 51°13.24 2°51.305 243 14.8 238 8.7
2005-03-11 08:19:16 51°13.228 2°51.274 243.3 14.8 238 8.8
2005-03-11 08:19:20 51°13.219 2°51.252 243.2 14.8 238 8.8
2005-03-11 08:19:26 51°13.206 2°51.218 243.4 14.8 238 8.8
2005-03-11 08:19:30 51°13.198 2°51.199 243 14.8 238 8.8
2005-03-11 08:19:36 51°13.184 2°51.163 243.1 14.8 238 8.8
2005-03-11 08:19:41 51°13.174 2°51.138 243.1 14.8 238 8.8
2005-03-11 08:19:46 51°13.163 2°51.111 242.8 14.8 238 8.9
2005-03-11 08:19:51 51°13.152 2°51.083 242.6 14.8 237 8.9
2005-03-11 08:19:56 51°13.14 2°51.052 242.4 14.8 237 8.9
2005-03-11 08:20:02 51°13.128 2°51.022 242.4 14.8 238 8.9
2005-03-11 08:20:06 51°13.12 2°51 242.7 14.8 238 9
2005-03-11 08:20:11 51°13.108 2°50.969 243.2 14.8 238 8.9
2005-03-11 08:20:16 51°13.097 2°50.941 243.1 14.8 238 8.9
2005-03-11 08:20:20 51°13.088 2°50.918 243.4 14.8 238 8.9
2005-03-11 08:20:25 51°13.078 2°50.89 243.8 14.9 239 9
2005-03-11 08:20:31 51°13.065 2°50.857 244.4 14.8 239 9
2005-03-11 08:20:36 51°13.054 2°50.828 243.8 14.8 239 8.9
2005-03-11 08:20:40 51°13.046 2°50.806 244 14.9 239 8.9
2005-03-11 08:20:46 51°13.033 2°50.771 244.2 14.9 239 8.9
2005-03-11 08:20:52 51°13.021 2°50.741 244.4 14.9 239 8.9
2005-03-11 08:20:56 51°13.013 2°50.718 244.3 14.9 239 8.9
2005-03-11 08:21:00 51°13.004 2°50.692 244.4 14.9 240 8.9
2005-03-11 08:21:06 51°12.992 2°50.661 244.8 14.9 240 8.9
2005-03-11 08:21:10 51°12.984 2°50.638 244.8 14.9 240 9
2005-03-11 08:21:16 51°12.971 2°50.601 245 15 240 8.9
2005-03-11 08:21:20 51°12.963 2°50.578 245.1 14.9 240 8.9
2005-03-11 08:21:26 51°12.95 2°50.543 244.6 14.9 240 8.9
2005-03-11 08:21:32 51°12.938 2°50.512 244.3 14.9 240 9
2005-03-11 08:21:36 51°12.929 2°50.487 244.1 14.9 240 9
2005-03-11 08:21:41 51°12.918 2°50.459 243.5 14.9 239 8.9
2005-03-11 08:21:46 51°12.908 2°50.434 243.4 14.9 239 8.9
2005-03-11 08:21:52 51°12.895 2°50.4 243.7 14.9 239 9
2005-03-11 08:21:56 51°12.886 2°50.375 243.8 14.9 239 8.9
2005-03-11 08:22:01 51°12.876 2°50.349 243.8 14.9 239 8.9
2005-03-11 08:22:05 51°12.867 2°50.324 243.7 14.9 239 8.9
2005-03-11 08:22:11 51°12.855 2°50.293 243.8 14.9 239 8.9
2005-03-11 08:22:16 51°12.843 2°50.262 243.7 14.9 239 9
2005-03-11 08:22:21 51°12.834 2°50.236 243.7 14.9 239 9
2005-03-11 08:22:26 51°12.822 2°50.204 243.8 14.9 239 9
2005-03-11 08:22:31 51°12.811 2°50.176 244 14.9 239 9
2005-03-11 08:22:36 51°12.801 2°50.148 244 14.9 239 9
2005-03-11 08:22:42 51°12.789 2°50.117 244 14.9 239 9
2005-03-11 08:22:46 51°12.781 2°50.094 243.7 15 239 9
2005-03-11 08:22:50 51°12.772 2°50.071 243.8 14.9 239 9
2005-03-11 08:22:56 51°12.759 2°50.034 243.8 14.9 239 9
2005-03-11 08:23:02 51°12.747 2°50.003 243.7 14.9 239 9
2005-03-11 08:23:06 51°12.739 2°49.981 244.2 14.9 240 9
2005-03-11 08:23:10 51°12.731 2°49.958 244.1 14.9 239 9
2005-03-11 08:23:16 51°12.717 2°49.92 243.9 15 239 9
2005-03-11 08:23:21 51°12.708 2°49.895 244.4 15 240 9.1
2005-03-11 08:23:27 51°12.695 2°49.861 244.5 14.9 240 9.1
2005-03-11 08:23:32 51°12.684 2°49.832 244.3 14.9 240 9.1
2005-03-11 08:23:37 51°12.674 2°49.804 244.2 14.9 240 9
2005-03-11 08:23:42 51°12.663 2°49.775 244.2 15 240 9.1
2005-03-11 08:23:46 51°12.655 2°49.752 244 15 239 9.1
2005-03-11 08:23:51 51°12.643 2°49.721 243.8 15 239 9.1
2005-03-11 08:23:56 51°12.633 2°49.693 243.7 14.9 240 9
2005-03-11 08:24:01 51°12.624 2°49.667 244 15 239 9.1
2005-03-11 08:24:05 51°12.614 2°49.641 244.4 15 240 9.1
2005-03-11 08:24:11 51°12.602 2°49.607 244.4 14.9 241 9.1
2005-03-11 08:24:16 51°12.591 2°49.578 244.7 14.9 241 9.1
2005-03-11 08:24:21 51°12.582 2°49.55 244.7 15 239 9.1
2005-03-11 08:24:26 51°12.573 2°49.524 244.8 15 239 9.1
2005-03-11 08:24:31 51°12.561 2°49.493 244.6 15 240 9.1
2005-03-11 08:24:36 51°12.55 2°49.464 244.1 14.9 239 9
2005-03-11 08:24:41 51°12.54 2°49.436 244.3 15 240 9.1
2005-03-11 08:24:46 51°12.53 2°49.41 244 15 240 9
2005-03-11 08:24:50 51°12.521 2°49.387 243.5 14.9 240 9.1
2005-03-11 08:24:56 51°12.508 2°49.35 244.2 15 240 9.1
2005-03-11 08:25:00 51°12.499 2°49.328 244.4 14.9 239 9
2005-03-11 08:25:06 51°12.486 2°49.293 243.9 15 239 9.1
2005-03-11 08:25:10 51°12.479 2°49.273 244 15 239 9.1
2005-03-11 08:25:16 51°12.465 2°49.236 244.2 15 239 9
2005-03-11 08:25:20 51°12.457 2°49.213 244.3 14.9 240 9.1
2005-03-11 08:25:26 51°12.444 2°49.179 244.5 14.9 240 9.1
2005-03-11 08:25:32 51°12.433 2°49.148 244.6 14.9 240 9.1
2005-03-11 08:25:36 51°12.424 2°49.122 244.4 14.9 240 9.1
2005-03-11 08:25:41 51°12.415 2°49.096 244.4 15 240 9.1
2005-03-11 08:25:46 51°12.404 2°49.068 244.3 15 240 9
2005-03-11 08:25:51 51°12.393 2°49.037 244.1 14.9 240 9.1
2005-03-11 08:25:56 51°12.382 2°49.008 244.4 14.9 240 9.1
2005-03-11 08:26:00 51°12.374 2°48.985 244.1 14.9 240 9.1
2005-03-11 08:26:05 51°12.363 2°48.957 244.3 14.9 240 9
2005-03-11 08:26:11 51°12.352 2°48.925 244.4 15 240 9.1
2005-03-11 08:26:16 51°12.34 2°48.894 244.3 15 240 9.1
2005-03-11 08:26:20 51°12.332 2°48.871 244 15 240 9.1
2005-03-11 08:26:26 51°12.32 2°48.84 244.5 15 240 9
2005-03-11 08:26:31 51°12.309 2°48.808 244.3 15 239 9.1
2005-03-11 08:26:36 51°12.3 2°48.783 244.7 15 239 9
2005-03-11 08:26:41 51°12.288 2°48.751 244.7 15 239 9.1
2005-03-11 08:26:46 51°12.278 2°48.725 244.7 15 240 9.1
2005-03-11 08:26:51 51°12.268 2°48.696 244.8 14.9 240 9.1
2005-03-11 08:26:56 51°12.257 2°48.665 244.7 14.9 240 9.1
2005-03-11 08:27:02 51°12.245 2°48.634 244.6 14.9 240 9
2005-03-11 08:27:06 51°12.236 2°48.611 244.5 14.9 239 9.1
2005-03-11 08:27:11 51°12.225 2°48.58 244.1 14.9 240 9.1
2005-03-11 08:27:16 51°12.215 2°48.554 244.4 14.9 240 9.1
2005-03-11 08:27:21 51°12.205 2°48.525 244.5 14.9 240 9.1
2005-03-11 08:27:26 51°12.195 2°48.497 244.9 14.9 240 9.1
2005-03-11 08:27:30 51°12.185 2°48.471 244.8 14.9 240 9.1
2005-03-11 08:27:36 51°12.174 2°48.44 244.7 15 239 9.1
2005-03-11 08:27:42 51°12.161 2°48.405 244.7 15 239 9.1
2005-03-11 08:27:46 51°12.153 2°48.382 244.5 15 239 9.1
2005-03-11 08:27:51 51°12.142 2°48.351 245.1 15 241 9
2005-03-11 08:27:56 51°12.132 2°48.322 245.3 14.9 240 9.1
2005-03-11 08:28:01 51°12.122 2°48.296 245 15 240 9.1
2005-03-11 08:28:06 51°12.112 2°48.268 244.9 15 240 9.1
2005-03-11 08:28:11 51°12.1 2°48.236 244.9 15 240 9.1
2005-03-11 08:28:16 51°12.09 2°48.207 244.4 15 239 9
2005-03-11 08:28:20 51°12.082 2°48.185 244.6 14.9 239 9
2005-03-11 08:28:26 51°12.069 2°48.15 244 14.9 239 9
2005-03-11 08:28:31 51°12.059 2°48.122 244.7 15 240 9
2005-03-11 08:28:36 51°12.05 2°48.095 244.4 15 240 9
2005-03-11 08:28:41 51°12.038 2°48.064 244.8 15 241 9
2005-03-11 08:28:46 51°12.029 2°48.039 244.6 14.9 241 9
2005-03-11 08:28:51 51°12.017 2°48.007 244.5 14.9 239 9.1
2005-03-11 08:28:56 51°12.007 2°47.978 244.5 15 240 9
2005-03-11 08:29:01 51°11.996 2°47.95 244.4 15 240 9.1
2005-03-11 08:29:07 51°11.985 2°47.918 244.1 15 240 9
2005-03-11 08:29:11 51°11.977 2°47.895 244.1 14.9 240 9
2005-03-11 08:29:17 51°11.964 2°47.861 244.4 14.9 240 9
2005-03-11 08:29:22 51°11.954 2°47.832 244.5 14.9 240 9
2005-03-11 08:29:26 51°11.944 2°47.806 244.5 14.9 240 9
2005-03-11 08:29:31 51°11.934 2°47.778 244.4 14.9 240 8.9
2005-03-11 08:29:36 51°11.925 2°47.752 244.7 14.9 240 8.9
2005-03-11 08:29:41 51°11.914 2°47.721 244.6 14.9 240 8.9
2005-03-11 08:29:46 51°11.904 2°47.696 244.6 14.9 240 8.8
2005-03-11 08:29:51 51°11.893 2°47.664 244.8 14.9 240 8.8
2005-03-11 08:29:56 51°11.883 2°47.636 244.6 14.9 240 8.9
2005-03-11 08:30:00 51°11.874 2°47.613 244.5 14.9 240 8.8
2005-03-11 08:30:06 51°11.862 2°47.578 244.3 14.9 240 8.8
2005-03-11 08:30:11 51°11.852 2°47.55 244.5 14.9 240 8.7
2005-03-11 08:30:16 51°11.842 2°47.521 244.5 14.9 240 8.7
2005-03-11 08:30:21 51°11.832 2°47.496 245 14.8 241 8.7
2005-03-11 08:30:26 51°11.821 2°47.464 245 14.9 241 8.6
2005-03-11 08:30:31 51°11.811 2°47.436 245.1 14.8 239 8.6
2005-03-11 08:30:36 51°11.801 2°47.408 245 14.8 240 8.6
2005-03-11 08:30:41 51°11.79 2°47.38 245 14.8 240 8.6
2005-03-11 08:30:46 51°11.781 2°47.354 244.3 14.9 240 8.6
2005-03-11 08:30:51 51°11.77 2°47.323 244.8 14.8 239 8.6
2005-03-11 08:30:56 51°11.76 2°47.295 244.5 14.8 240 8.5
2005-03-11 08:31:02 51°11.748 2°47.264 244.8 14.7 240 8.5
2005-03-11 08:31:06 51°11.74 2°47.241 244.4 14.8 240 8.5
2005-03-11 08:31:11 51°11.729 2°47.21 244.5 14.8 240 8.5
2005-03-11 08:31:16 51°11.719 2°47.181 244.8 14.7 241 8.4
2005-03-11 08:31:21 51°11.709 2°47.153 245.1 14.7 241 8.3
2005-03-11 08:31:26 51°11.7 2°47.127 245.2 14.7 241 8.2
2005-03-11 08:31:32 51°11.689 2°47.094 245.4 14.8 241 8.3
2005-03-11 08:31:36 51°11.68 2°47.067 245.7 14.8 241 8.3
2005-03-11 08:31:41 51°11.67 2°47.039 245.6 14.8 241 8.3
2005-03-11 08:31:46 51°11.662 2°47.013 245.5 14.7 241 8.2
2005-03-11 08:31:51 51°11.651 2°46.982 245.7 14.6 241 8.2
2005-03-11 08:31:56 51°11.641 2°46.954 245.5 14.5 241 8.2
2005-03-11 08:32:01 51°11.631 2°46.926 244.4 14.6 240 8.2
2005-03-11 08:32:06 51°11.621 2°46.898 244.5 14.6 240 8.1
2005-03-11 08:32:11 51°11.611 2°46.87 244.1 14.6 240 8.2
2005-03-11 08:32:16 51°11.601 2°46.842 244.8 14.6 242 8.1
2005-03-11 08:32:21 51°11.593 2°46.813 246 14.6 243 8.1
2005-03-11 08:32:26 51°11.585 2°46.787 247.9 14.6 244 8.1
2005-03-11 08:32:31 51°11.576 2°46.755 248.9 14.5 246 8.1
2005-03-11 08:32:36 51°11.568 2°46.725 250.6 14.5 246 8.1
2005-03-11 08:32:41 51°11.561 2°46.698 251.4 14.5 247 8.1
2005-03-11 08:32:45 51°11.554 2°46.671 252.7 14.6 248 8.1
2005-03-11 08:32:52 51°11.545 2°46.632 253.4 14.6 249 8.2
2005-03-11 08:32:56 51°11.539 2°46.605 254 14.6 249 8.1
2005-03-11 08:33:00 51°11.533 2°46.581 254.8 14.6 250 8.2
2005-03-11 08:33:06 51°11.525 2°46.548 255.2 14.6 250 8.3
2005-03-11 08:33:12 51°11.517 2°46.512 254.7 14.6 250 8.3
2005-03-11 08:33:16 51°11.51 2°46.484 254.8 14.6 249 8.3
2005-03-11 08:33:21 51°11.502 2°46.454 254.2 14.7 249 8.3
2005-03-11 08:33:26 51°11.495 2°46.427 253 14.7 249 8.3
2005-03-11 08:33:30 51°11.489 2°46.403 252 14.7 247 8.4
2005-03-11 08:33:36 51°11.478 2°46.364 251.8 14.7 247 8.4
2005-03-11 08:33:41 51°11.47 2°46.334 250.9 14.8 246 8.4
2005-03-11 08:33:46 51°11.462 2°46.307 250.9 14.8 246 8.4
2005-03-11 08:33:50 51°11.456 2°46.283 251.1 14.8 247 8.5
2005-03-11 08:33:57 51°11.445 2°46.241 251.8 14.8 247 8.5
2005-03-11 08:34:01 51°11.438 2°46.213 252.5 14.8 248 8.5
2005-03-11 08:34:06 51°11.432 2°46.186 253.4 14.8 248 8.5
2005-03-11 08:34:11 51°11.424 2°46.155 254 14.8 249 8.6
2005-03-11 08:34:16 51°11.416 2°46.122 254 14.8 249 8.6
2005-03-11 08:34:21 51°11.409 2°46.094 253.9 14.9 249 8.6
2005-03-11 08:34:27 51°11.4 2°46.058 254 14.9 249 8.6
2005-03-11 08:34:31 51°11.393 2°46.03 253.5 14.9 248 8.6
2005-03-11 08:34:36 51°11.385 2°46 252.9 14.9 248 8.6
2005-03-11 08:34:41 51°11.378 2°45.973 252.5 14.9 247 8.6
2005-03-11 08:34:46 51°11.368 2°45.939 251.3 14.9 247 8.6
2005-03-11 08:34:52 51°11.359 2°45.906 251.5 14.9 247 8.6
2005-03-11 08:34:56 51°11.352 2°45.879 251.4 14.9 247 8.6
2005-03-11 08:35:00 51°11.346 2°45.855 251.4 14.9 247 8.7
2005-03-11 08:35:05 51°11.338 2°45.825 251.7 14.9 247 8.7
2005-03-11 08:35:11 51°11.329 2°45.792 252 14.9 247 8.7
2005-03-11 08:35:16 51°11.321 2°45.761 252.2 14.9 247 8.7
2005-03-11 08:35:21 51°11.313 2°45.728 253.1 14.8 249 8.7
2005-03-11 08:35:26 51°11.305 2°45.697 253.2 14.8 249 8.7
2005-03-11 08:35:31 51°11.298 2°45.667 253.3 14.8 248 8.7
2005-03-11 08:35:37 51°11.289 2°45.633 253.2 14.8 248 8.7
2005-03-11 08:35:40 51°11.284 2°45.612 252.4 14.8 248 8.8
2005-03-11 08:35:45 51°11.275 2°45.582 252.2 14.8 248 8.8
2005-03-11 08:35:50 51°11.268 2°45.555 251.6 14.8 247 8.7
2005-03-11 08:35:57 51°11.257 2°45.513 251.1 14.8 247 8.7
2005-03-11 08:36:01 51°11.249 2°45.486 251.2 14.8 247 8.7
2005-03-11 08:36:06 51°11.242 2°45.459 251.2 14.8 247 8.7
2005-03-11 08:36:11 51°11.233 2°45.426 251.6 14.8 247 8.7
2005-03-11 08:36:16 51°11.225 2°45.396 251.8 14.8 247 8.7
2005-03-11 08:36:22 51°11.217 2°45.363 251.6 14.8 247 8.7
2005-03-11 08:36:26 51°11.21 2°45.338 251.8 14.9 247 8.7
2005-03-11 08:36:31 51°11.201 2°45.305 251.9 14.9 247 8.6
2005-03-11 08:36:36 51°11.193 2°45.275 251.8 14.7 247 8.6
2005-03-11 08:36:40 51°11.187 2°45.251 251.9 14.8 247 8.6
2005-03-11 08:36:46 51°11.178 2°45.218 251.8 14.8 247 8.6
2005-03-11 08:36:52 51°11.169 2°45.182 252.1 14.8 247 8.6
2005-03-11 08:36:57 51°11.161 2°45.151 252.2 14.8 247 8.6
2005-03-11 08:37:01 51°11.154 2°45.125 252.4 14.8 247 8.6
2005-03-11 08:37:06 51°11.146 2°45.093 252.5 14.8 248 8.6
2005-03-11 08:37:10 51°11.14 2°45.073 252.3 14.9 248 8.6
2005-03-11 08:37:17 51°11.13 2°45.03 252.4 14.9 248 8.6
2005-03-11 08:37:20 51°11.124 2°45.009 252.9 14.8 248 8.6
2005-03-11 08:37:26 51°11.115 2°44.972 252.8 14.8 248 8.6
2005-03-11 08:37:32 51°11.106 2°44.939 252.8 14.9 248 8.6
2005-03-11 08:37:36 51°11.099 2°44.912 252.5 14.9 248 8.6
2005-03-11 08:37:41 51°11.092 2°44.884 252.3 14.9 247 8.7
2005-03-11 08:37:46 51°11.083 2°44.85 252.3 14.9 248 8.7
2005-03-11 08:37:50 51°11.077 2°44.826 252.3 15 248 8.7
2005-03-11 08:37:56 51°11.068 2°44.79 252.9 15 248 8.7
2005-03-11 08:38:00 51°11.061 2°44.765 252.7 15 248 8.6
2005-03-11 08:38:06 51°11.052 2°44.727 253.1 14.9 248 8.6
2005-03-11 08:38:11 51°11.045 2°44.697 253.3 14.9 248 8.7
2005-03-11 08:38:16 51°11.039 2°44.669 253.9 15 249 8.7
2005-03-11 08:38:20 51°11.033 2°44.641 254.9 14.9 250 8.7
2005-03-11 08:38:26 51°11.024 2°44.603 255.4 14.9 251 8.7
2005-03-11 08:38:31 51°11.019 2°44.575 256.3 14.9 251 8.7
2005-03-11 08:38:36 51°11.011 2°44.541 256.9 15 251 8.7
2005-03-11 08:38:41 51°11.006 2°44.512 256.8 15 251 8.7
2005-03-11 08:38:46 51°10.998 2°44.478 256.9 15 251 8.7
2005-03-11 08:38:51 51°10.992 2°44.451 256.5 14.9 251 8.8
2005-03-11 08:38:56 51°10.984 2°44.417 255.4 14.9 251 8.8
2005-03-11 08:39:00 51°10.978 2°44.392 255.1 14.9 250 8.8
2005-03-11 08:39:06 51°10.97 2°44.354 254.9 15 250 8.8
2005-03-11 08:39:10 51°10.965 2°44.333 254.7 15 250 8.8
2005-03-11 08:39:17 51°10.955 2°44.289 255.4 15 250 8.8
2005-03-11 08:39:21 51°10.948 2°44.261 255.2 15 251 8.8
2005-03-11 08:39:26 51°10.941 2°44.229 255.4 15 251 8.8
2005-03-11 08:39:31 51°10.935 2°44.199 255.8 14.9 251 8.8
2005-03-11 08:39:36 51°10.929 2°44.171 256.1 14.9 251 8.8
2005-03-11 08:39:40 51°10.923 2°44.143 255.8 14.9 250 8.8
2005-03-11 08:39:45 51°10.915 2°44.112 255.4 14.9 250 8.7
2005-03-11 08:39:50 51°10.909 2°44.084 255.1 15 250 8.8
2005-03-11 08:39:56 51°10.9 2°44.047 254.8 15 250 8.7
2005-03-11 08:40:01 51°10.893 2°44.015 254.9 14.9 250 8.7
2005-03-11 08:40:06 51°10.886 2°43.985 254.8 14.9 250 8.7
2005-03-11 08:40:11 51°10.879 2°43.95 255.1 14.9 250 8.7
2005-03-11 08:40:17 51°10.871 2°43.913 255.2 14.9 250 8.7
2005-03-11 08:40:20 51°10.866 2°43.895 255.1 14.9 250 8.8
2005-03-11 08:40:26 51°10.858 2°43.861 254.9 14.8 250 8.7
2005-03-11 08:40:31 51°10.851 2°43.83 255.1 14.8 250 8.8
2005-03-11 08:40:36 51°10.845 2°43.799 255 14.9 250 8.8
2005-03-11 08:40:42 51°10.837 2°43.762 255.4 14.9 251 8.8
2005-03-11 08:40:46 51°10.83 2°43.734 255.4 14.9 251 8.8
2005-03-11 08:40:51 51°10.824 2°43.703 255.1 14.9 251 8.7
2005-03-11 08:40:56 51°10.817 2°43.673 255.2 14.8 251 8.8
2005-03-11 08:41:02 51°10.809 2°43.639 254.8 14.8 251 8.8
2005-03-11 08:41:06 51°10.802 2°43.611 255.1 14.7 250 8.8
2005-03-11 08:41:12 51°10.795 2°43.578 254.6 14.8 250 8.8
2005-03-11 08:41:16 51°10.789 2°43.55 254.7 14.8 250 8.8
2005-03-11 08:41:20 51°10.783 2°43.525 254.9 14.8 250 8.8
2005-03-11 08:41:26 51°10.775 2°43.488 255.1 14.8 250 8.8
2005-03-11 08:41:32 51°10.767 2°43.455 254.7 14.8 250 8.9
2005-03-11 08:41:36 51°10.761 2°43.427 255.1 14.8 251 8.8
2005-03-11 08:41:41 51°10.754 2°43.396 255.1 14.8 251 8.8
2005-03-11 08:41:46 51°10.748 2°43.368 254.9 14.8 251 8.8
2005-03-11 08:41:51 51°10.74 2°43.335 255 14.7 250 8.8
2005-03-11 08:41:56 51°10.734 2°43.304 254.9 14.8 251 8.8
2005-03-11 08:42:00 51°10.728 2°43.28 255.4 14.8 251 8.8
2005-03-11 08:42:05 51°10.722 2°43.249 255.6 14.7 251 8.8
2005-03-11 08:42:11 51°10.714 2°43.212 255.6 14.7 251 8.8
2005-03-11 08:42:16 51°10.707 2°43.181 255.8 14.7 251 8.9
2005-03-11 08:42:21 51°10.7 2°43.151 255.8 14.7 251 8.8
2005-03-11 08:42:26 51°10.694 2°43.123 255.4 14.7 251 8.8
2005-03-11 08:42:30 51°10.689 2°43.098 255.1 14.8 251 8.8
2005-03-11 08:42:36 51°10.681 2°43.062 255.3 14.7 251 8.8
2005-03-11 08:42:42 51°10.673 2°43.025 255.1 14.7 250 8.8
2005-03-11 08:42:46 51°10.666 2°42.997 254.7 14.7 250 8.8
2005-03-11 08:42:50 51°10.661 2°42.972 254.9 14.7 250 8.8
2005-03-11 08:42:56 51°10.653 2°42.936 254.7 14.7 251 8.8
2005-03-11 08:43:00 51°10.647 2°42.912 254.9 14.7 251 8.8
2005-03-11 08:43:05 51°10.64 2°42.881 254.7 14.7 250 8.8
2005-03-11 08:43:12 51°10.632 2°42.841 254.8 14.8 251 8.8
2005-03-11 08:43:16 51°10.626 2°42.817 255 14.8 251 8.8
2005-03-11 08:43:21 51°10.619 2°42.783 255.1 14.8 251 8.8
2005-03-11 08:43:26 51°10.613 2°42.755 255.4 14.8 251 8.8
2005-03-11 08:43:32 51°10.605 2°42.718 255.3 14.8 251 8.8
2005-03-11 08:43:37 51°10.598 2°42.687 255 14.8 251 8.9
2005-03-11 08:43:41 51°10.592 2°42.662 255 14.7 250 8.9
2005-03-11 08:43:46 51°10.585 2°42.632 254.4 14.8 250 8.9
2005-03-11 08:43:51 51°10.578 2°42.599 254.4 14.8 250 8.9
2005-03-11 08:43:56 51°10.571 2°42.568 254.6 14.7 251 8.8
2005-03-11 08:44:01 51°10.565 2°42.54 254.8 14.7 250 8.9
2005-03-11 08:44:06 51°10.558 2°42.509 254.7 14.7 250 8.9
2005-03-11 08:44:10 51°10.553 2°42.485 255.4 14.7 251 8.9
2005-03-11 08:44:17 51°10.544 2°42.441 255.6 14.8 251 8.9
2005-03-11 08:44:21 51°10.538 2°42.414 255.6 14.8 251 8.8
2005-03-11 08:44:26 51°10.531 2°42.383 255.6 14.8 251 8.9
2005-03-11 08:44:30 51°10.527 2°42.362 255.4 14.7 251 8.9
2005-03-11 08:44:36 51°10.518 2°42.322 255.3 14.7 251 9
2005-03-11 08:44:41 51°10.512 2°42.294 255.4 14.7 251 9
2005-03-11 08:44:46 51°10.504 2°42.26 255.1 14.7 251 9
2005-03-11 08:44:52 51°10.497 2°42.227 255.1 14.8 251 9
2005-03-11 08:44:56 51°10.491 2°42.199 255.2 14.8 251 9
2005-03-11 08:45:01 51°10.485 2°42.168 255 14.8 251 9
2005-03-11 08:45:06 51°10.478 2°42.137 255.4 14.8 251 9
2005-03-11 08:45:10 51°10.473 2°42.116 255 14.7 251 9
2005-03-11 08:45:16 51°10.464 2°42.076 254.7 14.7 251 9
2005-03-11 08:45:21 51°10.458 2°42.045 254.9 14.8 251 9
2005-03-11 08:45:26 51°10.451 2°42.014 255.2 14.8 251 9
2005-03-11 08:45:32 51°10.444 2°41.98 255.1 14.7 251 9
2005-03-11 08:45:36 51°10.438 2°41.953 254.7 14.7 250 9.1
2005-03-11 08:45:40 51°10.432 2°41.928 254.6 14.7 250 9.1
2005-03-11 08:45:46 51°10.424 2°41.891 254.6 14.7 250 9.1
2005-03-11 08:45:51 51°10.418 2°41.861 254.9 14.7 251 9.2
2005-03-11 08:45:56 51°10.411 2°41.829 255.2 14.7 251 9.2
2005-03-11 08:46:00 51°10.406 2°41.805 255.4 14.7 251 9.2
2005-03-11 08:46:07 51°10.397 2°41.762 255.8 14.7 251 9.2
2005-03-11 08:46:10 51°10.393 2°41.742 255.7 14.8 252 9.2
2005-03-11 08:46:16 51°10.386 2°41.706 255.5 14.8 252 9.2
2005-03-11 08:46:21 51°10.379 2°41.675 255.3 14.7 251 9.2
2005-03-11 08:46:26 51°10.373 2°41.647 254.9 14.7 251 9.2
2005-03-11 08:46:30 51°10.367 2°41.619 255.1 14.8 251 9.2
2005-03-11 08:46:36 51°10.359 2°41.583 254.7 14.8 251 9.2
2005-03-11 08:46:40 51°10.353 2°41.558 254.7 14.8 251 9.2
2005-03-11 08:46:47 51°10.345 2°41.518 254.7 14.8 251 9.3
2005-03-11 08:46:52 51°10.338 2°41.488 254.6 14.8 251 9.3
2005-03-11 08:46:57 51°10.331 2°41.457 254.3 14.8 251 9.3
2005-03-11 08:47:01 51°10.325 2°41.429 254.3 14.8 251 9.3
2005-03-11 08:47:06 51°10.319 2°41.402 254.7 14.8 251 9.3
2005-03-11 08:47:11 51°10.312 2°41.367 254.8 14.7 251 9.4
2005-03-11 08:47:17 51°10.305 2°41.333 254.4 14.7 251 9.3
2005-03-11 08:47:21 51°10.299 2°41.306 254.7 14.8 251 9.3
2005-03-11 08:47:26 51°10.293 2°41.278 255.2 14.7 252 9.4
2005-03-11 08:47:31 51°10.286 2°41.244 255.3 14.7 252 9.4
2005-03-11 08:47:36 51°10.28 2°41.213 256 14.7 252 9.4
2005-03-11 08:47:42 51°10.273 2°41.179 255.9 14.7 252 9.4
2005-03-11 08:47:46 51°10.267 2°41.151 255.4 14.7 252 9.4
2005-03-11 08:47:51 51°10.26 2°41.12 255.4 14.7 252 9.4
2005-03-11 08:47:56 51°10.254 2°41.09 255.4 14.7 252 9.4
2005-03-11 08:48:01 51°10.248 2°41.058 255.3 14.7 252 9.4
2005-03-11 08:48:06 51°10.241 2°41.027 255.3 14.7 252 9.5
2005-03-11 08:48:11 51°10.235 2°40.996 255.4 14.7 252 9.5
2005-03-11 08:48:16 51°10.229 2°40.965 255.1 14.7 252 9.5
2005-03-11 08:48:21 51°10.223 2°40.934 255 14.7 251 9.5
2005-03-11 08:48:26 51°10.216 2°40.903 254.5 14.7 251 9.5
2005-03-11 08:48:32 51°10.21 2°40.869 254.5 14.7 251 9.5
2005-03-11 08:48:36 51°10.204 2°40.842 254.7 14.7 251 9.6
2005-03-11 08:48:41 51°10.198 2°40.814 254.9 14.7 252 9.6
2005-03-11 08:48:46 51°10.191 2°40.78 255.2 14.7 252 9.6
2005-03-11 08:48:51 51°10.184 2°40.75 255.2 14.6 251 9.7
2005-03-11 08:48:57 51°10.177 2°40.716 255 14.6 251 9.7
2005-03-11 08:49:02 51°10.171 2°40.686 254.9 14.7 251 9.8
2005-03-11 08:49:06 51°10.165 2°40.661 254.9 14.7 252 9.7
2005-03-11 08:49:11 51°10.159 2°40.63 254.6 14.7 252 9.7
2005-03-11 08:49:16 51°10.152 2°40.6 254.4 14.6 251 9.7
2005-03-11 08:49:20 51°10.146 2°40.572 254.4 14.6 251 9.7
2005-03-11 08:49:26 51°10.138 2°40.535 254.4 14.6 251 9.8
2005-03-11 08:49:32 51°10.131 2°40.502 254.7 14.6 252 9.7
2005-03-11 08:49:36 51°10.125 2°40.475 254.9 14.6 252 9.7
2005-03-11 08:49:40 51°10.12 2°40.45 255 14.6 252 9.8
2005-03-11 08:49:47 51°10.112 2°40.41 255.4 14.6 252 9.7
2005-03-11 08:49:50 51°10.108 2°40.388 255.8 14.6 252 9.7
2005-03-11 08:49:57 51°10.099 2°40.349 255.7 14.6 252 9.8
2005-03-11 08:50:01 51°10.093 2°40.325 255.4 14.6 252 9.8
2005-03-11 08:50:06 51°10.087 2°40.294 255.3 14.6 252 9.8
2005-03-11 08:50:12 51°10.079 2°40.258 255 14.6 252 9.8
2005-03-11 08:50:16 51°10.074 2°40.231 254.9 14.6 252 9.9
2005-03-11 08:50:21 51°10.068 2°40.203 255.2 14.6 252 9.9
2005-03-11 08:50:26 51°10.061 2°40.173 255.2 14.6 252 9.9
2005-03-11 08:50:30 51°10.056 2°40.148 255 14.6 251 9.9
2005-03-11 08:50:36 51°10.048 2°40.109 254.7 14.6 251 9.9
2005-03-11 08:50:40 51°10.043 2°40.084 254.9 14.5 252 9.9
2005-03-11 08:50:46 51°10.035 2°40.051 254.9 14.5 252 9.9
2005-03-11 08:50:52 51°10.028 2°40.014 254.7 14.5 251 9.9
2005-03-11 08:50:56 51°10.022 2°39.987 254.7 14.5 251 9.9
2005-03-11 08:51:01 51°10.016 2°39.96 254.4 14.5 251 9.8
2005-03-11 08:51:06 51°10.01 2°39.929 254.4 14.5 251 9.9
2005-03-11 08:51:11 51°10.002 2°39.896 254.5 14.5 252 9.9
2005-03-11 08:51:17 51°9.995 2°39.862 254.6 14.5 252 9.9
2005-03-11 08:51:20 51°9.991 2°39.841 254.7 14.5 252 10
2005-03-11 08:51:26 51°9.984 2°39.808 254.9 14.5 251 10
2005-03-11 08:51:31 51°9.978 2°39.777 254.7 14.6 252 10
2005-03-11 08:51:36 51°9.971 2°39.744 254.9 14.6 252 10
2005-03-11 08:51:41 51°9.964 2°39.713 255.1 14.6 252 10
2005-03-11 08:51:46 51°9.959 2°39.686 255.3 14.6 252 10
2005-03-11 08:51:50 51°9.954 2°39.661 255.4 14.6 252 10
2005-03-11 08:51:57 51°9.945 2°39.618 255.4 14.6 252 10
2005-03-11 08:52:01 51°9.939 2°39.591 255.5 14.5 252 10
2005-03-11 08:52:06 51°9.934 2°39.563 255.3 14.5 252 10
2005-03-11 08:52:10 51°9.929 2°39.539 255.4 14.6 252 10
2005-03-11 08:52:16 51°9.921 2°39.499 255.4 14.6 252 10.1
2005-03-11 08:52:20 51°9.916 2°39.475 255.7 14.6 252 10.1
2005-03-11 08:52:26 51°9.908 2°39.437 255.3 14.6 252 10.1
2005-03-11 08:52:30 51°9.903 2°39.413 255.3 14.6 252 10.1
2005-03-11 08:52:36 51°9.896 2°39.38 255.3 14.5 252 10.2
2005-03-11 08:52:40 51°9.89 2°39.353 255.1 14.6 251 10.2
2005-03-11 08:52:46 51°9.883 2°39.319 255 14.6 251 10.2
2005-03-11 08:52:51 51°9.876 2°39.285 255 14.6 252 10.2
2005-03-11 08:52:56 51°9.87 2°39.254 255.2 14.6 252 10.3
2005-03-11 08:53:01 51°9.864 2°39.227 255.2 14.6 252 10.3
2005-03-11 08:53:06 51°9.857 2°39.192 255.4 14.6 252 10.3
2005-03-11 08:53:11 51°9.851 2°39.162 255.4 14.6 251 10.4
2005-03-11 08:53:16 51°9.846 2°39.135 255.3 14.6 251 10.4
2005-03-11 08:53:21 51°9.839 2°39.101 255.1 14.6 252 10.4
2005-03-11 08:53:26 51°9.832 2°39.07 255.2 14.6 252 10.5
2005-03-11 08:53:31 51°9.826 2°39.04 255.2 14.6 252 10.4
2005-03-11 08:53:36 51°9.82 2°39.009 255.2 14.6 252 10.5
2005-03-11 08:53:41 51°9.814 2°38.982 255 14.6 252 10.6
2005-03-11 08:53:45 51°9.808 2°38.955 254.9 14.5 252 10.6
2005-03-11 08:53:50 51°9.803 2°38.927 254.8 14.6 252 10.6
2005-03-11 08:53:56 51°9.795 2°38.887 254.8 14.6 252 10.6
2005-03-11 08:54:01 51°9.789 2°38.856 255.2 14.6 252 10.6
2005-03-11 08:54:06 51°9.784 2°38.827 255.4 14.6 252 10.7
2005-03-11 08:54:11 51°9.778 2°38.796 255.4 14.6 252 10.6
2005-03-11 08:54:16 51°9.772 2°38.766 255.3 14.6 252 10.6
2005-03-11 08:54:22 51°9.765 2°38.729 255.4 14.6 252 10.7
2005-03-11 08:54:26 51°9.76 2°38.703 255.3 14.6 252 10.7
2005-03-11 08:54:31 51°9.753 2°38.67 255.4 14.6 252 10.8
2005-03-11 08:54:36 51°9.747 2°38.639 255.5 14.6 253 10.7
2005-03-11 08:54:41 51°9.741 2°38.609 255.5 14.5 252 10.8
2005-03-11 08:54:47 51°9.734 2°38.575 255.4 14.5 252 10.8
2005-03-11 08:54:51 51°9.729 2°38.547 255.7 14.6 252 10.9
2005-03-11 08:54:56 51°9.722 2°38.517 255.6 14.6 252 10.9
2005-03-11 08:55:01 51°9.716 2°38.487 255.8 14.6 252 11
2005-03-11 08:55:06 51°9.71 2°38.459 255.4 14.5 252 11
2005-03-11 08:55:11 51°9.703 2°38.426 254.8 14.5 252 11
2005-03-11 08:55:16 51°9.697 2°38.395 255.1 14.5 252 11.1
2005-03-11 08:55:21 51°9.69 2°38.365 255.4 14.5 252 11.1
2005-03-11 08:55:26 51°9.685 2°38.338 255.2 14.5 252 11.1
2005-03-11 08:55:31 51°9.678 2°38.304 254.9 14.5 251 11.2
2005-03-11 08:55:36 51°9.672 2°38.277 255 14.5 251 11.3
2005-03-11 08:55:41 51°9.665 2°38.243 255.1 14.6 252 11.3
2005-03-11 08:55:46 51°9.659 2°38.216 255.4 14.6 252 11.4
2005-03-11 08:55:51 51°9.652 2°38.182 255.3 14.6 252 11.4
2005-03-11 08:55:56 51°9.647 2°38.155 255.4 14.6 252 11.5
2005-03-11 08:56:01 51°9.64 2°38.121 255.4 14.6 252 11.5
2005-03-11 08:56:07 51°9.632 2°38.087 255.4 14.6 252 11.5
2005-03-11 08:56:10 51°9.627 2°38.066 254.5 14.6 250 11.5
2005-03-11 08:56:16 51°9.618 2°38.03 253.4 14.6 250 11.5
2005-03-11 08:56:20 51°9.612 2°38.006 252.5 14.6 250 11.5
2005-03-11 08:56:26 51°9.603 2°37.97 252.1 14.6 250 11.6
2005-03-11 08:56:32 51°9.595 2°37.938 251.7 14.6 250 11.7
2005-03-11 08:56:36 51°9.588 2°37.91 251.2 14.6 250 11.7
2005-03-11 08:56:40 51°9.582 2°37.886 251.1 14.7 249 11.7
2005-03-11 08:56:47 51°9.572 2°37.847 251.2 14.7 249 11.7
2005-03-11 08:56:52 51°9.564 2°37.817 251.2 14.6 248 11.8
2005-03-11 08:56:56 51°9.558 2°37.79 250.9 14.6 248 11.8
2005-03-11 08:57:01 51°9.55 2°37.761 251.4 14.6 248 11.8
2005-03-11 08:57:06 51°9.543 2°37.734 250.9 14.6 247 11.8
2005-03-11 08:57:12 51°9.535 2°37.697 251.1 14.6 249 11.8
2005-03-11 08:57:16 51°9.529 2°37.673 251.4 14.6 249 11.8
2005-03-11 08:57:21 51°9.522 2°37.639 251.8 14.6 248 11.9
2005-03-11 08:57:27 51°9.514 2°37.605 254 14.6 248 11.9
2005-03-11 08:57:31 51°9.509 2°37.581 254.7 14.6 248 12
2005-03-11 08:57:37 51°9.502 2°37.543 255.3 14.6 248 12
2005-03-11 08:57:41 51°9.497 2°37.516 256 14.6 248 12.2
2005-03-11 08:57:45 51°9.492 2°37.491 256.3 14.6 248 12.2
2005-03-11 08:57:51 51°9.484 2°37.454 256.2 -999 -999 12.2
2005-03-11 08:57:56 51°9.478 2°37.423 256.3 14.7 253 12.3
2005-03-11 08:58:01 51°9.472 2°37.392 256.2 14.7 253 12.4
2005-03-11 08:58:06 51°9.467 2°37.365 256.4 14.7 253 12.5
2005-03-11 08:58:12 51°9.46 2°37.327 256.7 14.7 253 12.6
2005-03-11 08:58:16 51°9.455 2°37.299 256.8 14.6 254 12.7
2005-03-11 08:58:21 51°9.449 2°37.268 257 14.6 254 12.7
2005-03-11 08:58:26 51°9.444 2°37.239 257.2 14.6 254 12.9
2005-03-11 08:58:31 51°9.438 2°37.204 256.6 14.6 253 12.9
2005-03-11 08:58:36 51°9.433 2°37.174 256.6 14.6 254 13.1
2005-03-11 08:58:41 51°9.427 2°37.146 256.5 14.6 253 13.1
2005-03-11 08:58:46 51°9.421 2°37.115 256.3 14.6 254 13.2
2005-03-11 08:58:51 51°9.415 2°37.081 256.3 14.6 253 13.3
2005-03-11 08:58:56 51°9.409 2°37.05 256.2 14.7 253 13.5
2005-03-11 08:59:02 51°9.402 2°37.016 256 14.7 253 13.5
2005-03-11 08:59:07 51°9.396 2°36.985 255.7 14.6 253 13.7
2005-03-11 08:59:12 51°9.39 2°36.954 256.2 14.6 253 13.8
2005-03-11 08:59:16 51°9.385 2°36.927 256.2 14.6 253 13.9
2005-03-11 08:59:21 51°9.379 2°36.896 256.3 14.7 254 14.1
2005-03-11 08:59:25 51°9.374 2°36.871 256.3 14.7 253 14.1
2005-03-11 08:59:31 51°9.368 2°36.837 256.1 14.7 253 14.1
2005-03-11 08:59:36 51°9.361 2°36.803 255.9 14.7 253 14.4
2005-03-11 08:59:41 51°9.356 2°36.774 255.9 14.7 253 14.4
2005-03-11 08:59:46 51°9.351 2°36.749 255.9 13 253 14.3
2005-03-11 08:59:52 51°9.345 2°36.719 256 12.4 252 14.3
2005-03-11 08:59:56 51°9.34 2°36.697 255.9 11.7 253 14.3
2005-03-11 09:00:00 51°9.336 2°36.68 255.6 10.8 251 14.6
2005-03-11 09:00:06 51°9.332 2°36.656 255 10.2 252 14.7
2005-03-11 09:00:12 51°9.326 2°36.633 254 9.5 250 14.7
2005-03-11 09:00:17 51°9.322 2°36.615 252.8 9.5 250 14.8
2005-03-11 09:00:21 51°9.318 2°36.6 251.3 8.6 248 14.8
2005-03-11 09:00:26 51°9.313 2°36.586 249.6 8.2 247 14.8
2005-03-11 09:00:32 51°9.308 2°36.57 248.2 7.6 245 14.8
2005-03-11 09:00:36 51°9.303 2°36.558 244.5 7.2 243 14.7
2005-03-11 09:00:40 51°9.3 2°36.548 242 6.6 239 14.9
2005-03-11 09:00:46 51°9.294 2°36.536 238.7 6.4 239 14.8
2005-03-11 09:00:51 51°9.289 2°36.524 236.1 5.9 236 14.8
2005-03-11 09:00:56 51°9.285 2°36.515 233.7 5.6 232 14.8
2005-03-11 09:01:02 51°9.28 2°36.506 232.2 5.6 232 14.9
2005-03-11 09:01:06 51°9.276 2°36.499 229.3 5.6 232 14.9
2005-03-11 09:01:11 51°9.271 2°36.492 227.1 4.8 228 14.9
2005-03-11 09:01:16 51°9.267 2°36.486 223.9 4.3 223 14.7
2005-03-11 09:01:22 51°9.263 2°36.48 220.8 3.9 221 14.8
2005-03-11 09:01:27 51°9.258 2°36.475 217.1 3.8 220 14.7
2005-03-11 09:01:31 51°9.255 2°36.472 213.9 3.8 220 14.7
2005-03-11 09:01:36 51°9.252 2°36.469 209.8 2.7 213 14.6
2005-03-11 09:01:41 51°9.249 2°36.466 206.4 2.6 212 14.6
2005-03-11 09:01:47 51°9.246 2°36.463 203.2 2.6 214 14.5
2005-03-11 09:01:51 51°9.243 2°36.461 200.3 2.6 214 14.5
2005-03-11 09:01:56 51°9.24 2°36.458 197.5 2.5 210 14.4
2005-03-11 09:02:00 51°9.238 2°36.456 196.2 2.4 208 14.4
2005-03-11 09:02:06 51°9.234 2°36.454 194.5 2.3 203 14.4
2005-03-11 09:02:10 51°9.232 2°36.453 193.7 2.3 205 14.4
2005-03-11 09:02:16 51°9.228 2°36.45 194 2.3 205 14.4
2005-03-11 09:02:21 51°9.225 2°36.448 194.3 2.2 206 14.3
2005-03-11 09:02:26 51°9.223 2°36.447 194.1 2.2 206 14.2
2005-03-11 09:02:32 51°9.219 2°36.444 194.2 2.2 206 14.2
2005-03-11 09:02:36 51°9.217 2°36.443 194.1 1.9 207 14.2
2005-03-11 09:02:40 51°9.215 2°36.441 194.8 2 206 14.1
2005-03-11 09:02:45 51°9.213 2°36.44 194.7 2 206 14.1
2005-03-11 09:02:51 51°9.21 2°36.438 194.5 1.8 204 14
2005-03-11 09:02:56 51°9.207 2°36.436 194.5 1.8 204 14.1
2005-03-11 09:03:01 51°9.205 2°36.435 194.5 1.8 204 14
2005-03-11 09:03:06 51°9.204 2°36.433 193.8 1.7 208 13.9
2005-03-11 09:03:12 51°9.201 2°36.431 193.7 1.6 210 13.9
2005-03-11 09:03:16 51°9.199 2°36.43 193.2 1.7 208 14
2005-03-11 09:03:21 51°9.197 2°36.428 193.1 1.5 205 14
2005-03-11 09:03:26 51°9.195 2°36.427 193.2 1.5 203 14
2005-03-11 09:03:31 51°9.193 2°36.426 193 1.6 205 14.1
2005-03-11 09:03:36 51°9.191 2°36.424 192.6 1.6 205 13.9
2005-03-11 09:03:42 51°9.189 2°36.423 192.1 1.4 206 13.9
2005-03-11 09:03:46 51°9.188 2°36.422 191.7 1.4 204 13.9
2005-03-11 09:03:50 51°9.186 2°36.421 191.5 1.4 208 13.9
2005-03-11 09:03:56 51°9.184 2°36.419 191.2 1.4 209 13.8
2005-03-11 09:04:01 51°9.182 2°36.418 190.8 1.3 209 13.9
2005-03-11 09:04:06 51°9.181 2°36.417 190.8 1.3 209 13.9
2005-03-11 09:04:11 51°9.179 2°36.416 190.8 1.2 206 13.8
2005-03-11 09:04:16 51°9.177 2°36.415 190.6 1.1 209 13.9
2005-03-11 09:04:21 51°9.176 2°36.414 190.5 1.3 207 13.8
2005-03-11 09:04:26 51°9.174 2°36.413 190.5 1.1 207 13.7
2005-03-11 09:04:31 51°9.173 2°36.412 190.1 1.1 207 13.6
2005-03-11 09:04:36 51°9.172 2°36.411 189.7 1.2 208 13.6
2005-03-11 09:04:41 51°9.171 2°36.41 189.8 1.1 212 13.6
2005-03-11 09:04:46 51°9.169 2°36.408 189.3 1 211 13.6
2005-03-11 09:04:52 51°9.168 2°36.408 189.3 1 204 13.6
2005-03-11 09:04:56 51°9.166 2°36.407 189.2 1 204 13.6
2005-03-11 09:05:00 51°9.165 2°36.406 188.7 1.1 207 13.6
2005-03-11 09:05:05 51°9.164 2°36.405 188.6 1.1 207 13.6
2005-03-11 09:05:11 51°9.163 2°36.404 188.1 0.9 207 13.5
2005-03-11 09:05:16 51°9.162 2°36.403 187.9 0.9 207 13.5
2005-03-11 09:05:21 51°9.16 2°36.402 187.3 0.8 204 13.5
2005-03-11 09:05:25 51°9.159 2°36.401 186.6 0.8 204 13.5
2005-03-11 09:05:31 51°9.158 2°36.4 185.9 0.8 204 13.5
2005-03-11 09:05:37 51°9.157 2°36.399 185 0.8 206 13.5
2005-03-11 09:05:42 51°9.156 2°36.399 184 0.8 205 13.5
2005-03-11 09:05:45 51°9.155 2°36.398 182.9 0.8 205 13.5
2005-03-11 09:05:52 51°9.154 2°36.397 181.6 0.9 201 13.4
2005-03-11 09:05:56 51°9.153 2°36.397 180.3 0.8 211 13.3
2005-03-11 09:06:00 51°9.153 2°36.396 178.3 0.8 211 13.2
2005-03-11 09:06:06 51°9.151 2°36.395 176.4 0.7 208 13.2
2005-03-11 09:06:09 51°9.151 2°36.395 174.9 0.7 203 13.2
2005-03-11 09:06:16 51°9.15 2°36.394 173.7 0.7 198 13.3
2005-03-11 09:06:21 51°9.149 2°36.394 172.7 0.7 201 13.4
2005-03-11 09:06:24 51°9.148 2°36.393 172 0.7 206 13.4
2005-03-11 09:06:32 51°9.147 2°36.393 171.8 0.7 206 13.3
2005-03-11 09:06:36 51°9.146 2°36.393 170.9 0.7 206 13.3
2005-03-11 09:06:40 51°9.145 2°36.392 170.5 0.7 195 13.3
2005-03-11 09:06:46 51°9.144 2°36.392 169.3 0.7 192 13.4
2005-03-11 09:06:52 51°9.142 2°36.391 168.2 0.8 189 13.3
2005-03-11 09:06:56 51°9.141 2°36.39 166.9 0.8 189 13.2
2005-03-11 09:07:02 51°9.14 2°36.39 166.2 0.9 188 13.2
2005-03-11 09:07:06 51°9.139 2°36.389 165.3 1 190 13.2
2005-03-11 09:07:11 51°9.137 2°36.389 164.4 1 185 13.2
2005-03-11 09:07:16 51°9.136 2°36.388 163.8 1 185 13.1
2005-03-11 09:07:20 51°9.135 2°36.388 163.3 1 192 13.1
2005-03-11 09:07:25 51°9.133 2°36.387 162.2 1 182 13
2005-03-11 09:07:31 51°9.131 2°36.387 161.5 1.2 188 12.9
2005-03-11 09:07:36 51°9.13 2°36.387 160.9 1.2 188 12.9
2005-03-11 09:07:41 51°9.128 2°36.387 160.4 1.2 192 12.9
2005-03-11 09:07:46 51°9.126 2°36.386 160 1.2 192 13
2005-03-11 09:07:51 51°9.125 2°36.386 159.8 1.2 187 13
2005-03-11 09:07:56 51°9.123 2°36.385 159.3 1.2 188 12.9
2005-03-11 09:08:02 51°9.121 2°36.385 158.9 1.2 188 13
2005-03-11 09:08:06 51°9.12 2°36.385 158.4 1.3 188 13
2005-03-11 09:08:11 51°9.118 2°36.384 158.1 1.3 186 12.9
2005-03-11 09:08:16 51°9.116 2°36.384 157.5 1.3 185 12.9
2005-03-11 09:08:21 51°9.114 2°36.384 156.7 1.3 181 12.9
2005-03-11 09:08:26 51°9.112 2°36.384 156.7 1.4 185 12.8
2005-03-11 09:08:32 51°9.11 2°36.383 156.2 1.3 182 12.8
2005-03-11 09:08:36 51°9.108 2°36.384 155.8 1.3 178 12.7
2005-03-11 09:08:40 51°9.107 2°36.383 155.3 1.3 178 12.6
2005-03-11 09:08:46 51°9.105 2°36.383 155.2 1.4 185 12.6
2005-03-11 09:08:51 51°9.102 2°36.383 155.2 1.4 184 12.6
2005-03-11 09:08:56 51°9.1 2°36.383 155 1.5 185 12.6
2005-03-11 09:09:02 51°9.099 2°36.383 154.7 1.5 185 12.6
2005-03-11 09:09:06 51°9.097 2°36.383 155.3 1.4 179 12.4
2005-03-11 09:09:12 51°9.095 2°36.383 155 1.4 181 12.4
2005-03-11 09:09:16 51°9.093 2°36.383 154.3 1.4 178 12.4
2005-03-11 09:09:22 51°9.09 2°36.383 154.1 1.4 184 12.3
2005-03-11 09:09:26 51°9.089 2°36.383 153.8 1.4 184 12.3
2005-03-11 09:09:30 51°9.088 2°36.383 153.4 1.3 181 12.3
2005-03-11 09:09:36 51°9.085 2°36.383 153 1.3 181 12.3
2005-03-11 09:09:40 51°9.083 2°36.383 152.5 1.4 181 12.2
2005-03-11 09:09:45 51°9.081 2°36.383 152.9 1.4 182 12.1
2005-03-11 09:09:49 51°9.08 2°36.383 153 1.5 180 12.1
2005-03-11 09:09:56 51°9.077 2°36.383 153.2 1.5 178 12.1
2005-03-11 09:10:02 51°9.075 2°36.383 153.4 1.4 179 12
2005-03-11 09:10:06 51°9.073 2°36.383 154 1.4 178 12
2005-03-11 09:10:11 51°9.071 2°36.383 153.9 1.4 178 12
2005-03-11 09:10:16 51°9.069 2°36.383 154.3 1.4 184 11.9
2005-03-11 09:10:21 51°9.067 2°36.383 154.4 1.4 183 11.8
2005-03-11 09:10:26 51°9.064 2°36.383 154.1 1.4 183 11.7
2005-03-11 09:10:31 51°9.062 2°36.383 154.1 1.5 182 11.7
2005-03-11 09:10:36 51°9.06 2°36.383 154.1 1.5 178 11.7
2005-03-11 09:10:40 51°9.059 2°36.383 154.1 1.4 181 11.7
2005-03-11 09:10:46 51°9.056 2°36.382 154.5 1.5 179 11.7
2005-03-11 09:10:52 51°9.054 2°36.382 154.5 1.5 179 11.6
2005-03-11 09:10:57 51°9.052 2°36.383 153.8 1.5 179 11.6
2005-03-11 09:11:01 51°9.05 2°36.383 153.4 1.6 179 11.5
2005-03-11 09:11:07 51°9.047 2°36.383 152.5 1.6 174 11.4
2005-03-11 09:11:12 51°9.044 2°36.384 151.1 1.8 173 11.4
2005-03-11 09:11:16 51°9.042 2°36.385 149.3 1.9 166 11.3
2005-03-11 09:11:20 51°9.039 2°36.386 146.7 2.3 161 11.3
2005-03-11 09:11:26 51°9.036 2°36.389 142 2.3 157 11.2
2005-03-11 09:11:31 51°9.033 2°36.393 137.1 2.6 149 11.1
2005-03-11 09:11:36 51°9.03 2°36.396 131.7 2.6 143 11.1
2005-03-11 09:11:41 51°9.027 2°36.401 127 2.7 139 11
2005-03-11 09:11:46 51°9.025 2°36.405 120.6 2.7 130 10.9
2005-03-11 09:11:51 51°9.023 2°36.41 114.7 2.8 129 10.8
2005-03-11 09:11:56 51°9.022 2°36.416 106.6 2.8 129 10.7
2005-03-11 09:12:02 51°9.021 2°36.423 102.6 2.7 105 10.7
2005-03-11 09:12:06 51°9.021 2°36.428 94.3 2.7 105 10.6
2005-03-11 09:12:11 51°9.021 2°36.434 89 2.7 96 10.6
2005-03-11 09:12:16 51°9.022 2°36.44 80.5 2.7 79 10.6
2005-03-11 09:12:21 51°9.024 2°36.446 73.7 2.7 76 10.6
2005-03-11 09:12:26 51°9.026 2°36.45 65.7 2.7 76 10.6
2005-03-11 09:12:31 51°9.028 2°36.455 60.2 2.8 55 10.6
2005-03-11 09:12:36 51°9.032 2°36.459 53.6 2.8 55 10.7
2005-03-11 09:12:42 51°9.036 2°36.463 46.6 2.8 55 10.7
2005-03-11 09:12:46 51°9.039 2°36.465 40 2.9 28 10.8
2005-03-11 09:12:52 51°9.044 2°36.467 33.6 3 23 10.9
2005-03-11 09:12:56 51°9.048 2°36.468 27 3.2 13 10.9
2005-03-11 09:13:00 51°9.051 2°36.468 20.8 3.3 1 11
2005-03-11 09:13:06 51°9.056 2°36.467 13.1 3.3 357 11.1
2005-03-11 09:13:12 51°9.062 2°36.465 8.3 3.3 353 11.2
2005-03-11 09:13:16 51°9.066 2°36.463 1.8 3.5 346 11.3
2005-03-11 09:13:20 51°9.07 2°36.46 356.3 3.5 346 11.3
2005-03-11 09:13:26 51°9.076 2°36.456 352.4 3.9 337 11.4
2005-03-11 09:13:31 51°9.081 2°36.452 350.5 4 335 11.6
2005-03-11 09:13:36 51°9.087 2°36.447 348.4 4 335 11.7
2005-03-11 09:13:40 51°9.091 2°36.444 346.6 4.3 332 11.9
2005-03-11 09:13:46 51°9.097 2°36.438 344.7 4.4 331 12.1
2005-03-11 09:13:52 51°9.103 2°36.432 343.6 4.5 329 12.3
2005-03-11 09:13:56 51°9.109 2°36.427 343.5 4.5 329 12.4
2005-03-11 09:14:02 51°9.115 2°36.421 344.8 4.7 330 12.5
2005-03-11 09:14:06 51°9.121 2°36.416 345.2 4.9 332 12.7
2005-03-11 09:14:10 51°9.125 2°36.413 344.7 4.6 333 12.8
2005-03-11 09:14:16 51°9.133 2°36.406 344 5.1 328 12.9
2005-03-11 09:14:21 51°9.139 2°36.4 342.8 5.2 329 13
2005-03-11 09:14:26 51°9.145 2°36.393 341.9 5.2 329 13.2
2005-03-11 09:14:31 51°9.151 2°36.387 341.2 5.3 329 13.5
2005-03-11 09:14:37 51°9.158 2°36.38 340.5 5.4 327 13.6
2005-03-11 09:14:42 51°9.165 2°36.373 340.4 5.3 328 13.8
2005-03-11 09:14:47 51°9.171 2°36.367 340.1 5.4 327 14
2005-03-11 09:14:51 51°9.177 2°36.361 339.3 5.4 327 14.2
2005-03-11 09:14:56 51°9.183 2°36.354 338.9 5.4 327 14.2
2005-03-11 09:15:02 51°9.19 2°36.346 339.2 5.5 326 14.3
2005-03-11 09:15:06 51°9.195 2°36.34 338.9 5.6 326 14.5
2005-03-11 09:15:11 51°9.202 2°36.332 338.4 5.6 326 14.6
2005-03-11 09:15:16 51°9.209 2°36.325 338.9 5.5 326 14.9
2005-03-11 09:15:21 51°9.216 2°36.318 339.6 5.7 325 15
2005-03-11 09:15:26 51°9.222 2°36.311 339.1 5.7 325 15.1
2005-03-11 09:15:32 51°9.229 2°36.303 338.9 5.8 325 15
2005-03-11 09:15:36 51°9.235 2°36.296 339.3 5.7 325 15
2005-03-11 09:15:41 51°9.241 2°36.289 339.8 5.5 325 15.2
2005-03-11 09:15:46 51°9.246 2°36.283 339.9 5.2 324 15.1
2005-03-11 09:15:51 51°9.252 2°36.276 339.5 5 322 15.2
2005-03-11 09:15:56 51°9.257 2°36.27 338.6 5 322 15.2
2005-03-11 09:16:01 51°9.262 2°36.263 337.8 4.5 320 15.2
2005-03-11 09:16:06 51°9.266 2°36.257 337.4 4.4 320 15.3
2005-03-11 09:16:12 51°9.27 2°36.251 336.1 4.3 318 15.2
2005-03-11 09:16:16 51°9.274 2°36.245 335.4 4.3 318 15.2
2005-03-11 09:16:22 51°9.278 2°36.239 335 3.8 317 15.3
2005-03-11 09:16:26 51°9.28 2°36.235 334.3 3.4 316 15.2
2005-03-11 09:16:31 51°9.283 2°36.23 333.8 2.9 312 15.2